Strona główna
METAR-TAF:

METAR-TAF

Lotnisko :

Port lotniczy Nassau

Nassau, Bahamy

Szerokość geograficzna: 25-03N, Długość geograficzna: 077-28W, wysokość: 3 m

Aktualna obserwacja pogody

Raport powstał 50 minut temu, godzina 22:00 UTC
Wiatr 13 kt od południowy wschód, zmienny między wschód i południowo-południowy wschód
Temperatura 27°C
Wilgotność 74%
Ciśnienie 1017 hPa
Widzialność 10 km lub więcej
Rozproszone chmury na wysokości 2500 ft
Przerywane chmury na wysokości 22000 ft

METAR: MYNN 212200Z 13013KT 100V160 9999 SCT025 BKN220 27/22 A3004

czas: 18:50 (22:50 UTC)

Prognoza

Raport powstał 6 godziny i 50 minut temu, godzina 16:00 UTC
Prognoza ważna od 21 godzina 18 UTC do 22 godzina 18 UTC
Wiatr 14 kt od południowy wschód
Widzialność 10 km lub więcej
Przerywane chmury na wysokości 2000 ft
Przerywane chmury na wysokości 10000 ft

TAF: MYNN 211600Z 2118/2218 13014KT 9999 BKN020 BKN100

Obserwacja i prognoza pogody dla ponad 4000 lotnisk (raport METAR i TAF).

Dostępne stacje oznaczono żółtymi i czerwonymi punktami na mapie.

Najedź kursorem aby zobaczyć nazwę stacji.

Kliknij aby zobaczyć obserwacje i prognozy pogody.

Aby zmienić mapę: kliknij na zielony przycisk z czarnym krzyżykiem, aby powiększyć; na zielony przycisk z myślnikiem, aby pomniejszyć; na zielone strzałki, aby przejść do map sąsiednich.


METAR-TAF: